sensor_id;sensor_type;location;lat;lon;timestamp;P1;durP1;ratioP1;P2;durP2;ratioP2
35961;SDS011;22044;48.298;10.008;2024-02-26T00:00:02;7.37;;;5.77;;
35961;SDS011;22044;48.298;10.008;2024-02-26T00:02:48;7.47;;;5.67;;
35961;SDS011;22044;48.298;10.008;2024-02-26T00:05:36;6.43;;;5.20;;
35961;SDS011;22044;48.298;10.008;2024-02-26T00:08:22;5.20;;;4.70;;
35961;SDS011;22044;48.298;10.008;2024-02-26T00:11:08;7.37;;;5.60;;
35961;SDS011;22044;48.298;10.008;2024-02-26T00:13:54;6.78;;;5.68;;
35961;SDS011;22044;48.298;10.008;2024-02-26T00:16:39;6.30;;;5.60;;
35961;SDS011;22044;48.298;10.008;2024-02-26T00:19:26;6.53;;;5.40;;
35961;SDS011;22044;48.298;10.008;2024-02-26T00:22:13;7.30;;;5.23;;
35961;SDS011;22044;48.298;10.008;2024-02-26T00:24:58;8.10;;;5.80;;
35961;SDS011;22044;48.298;10.008;2024-02-26T00:27:44;6.57;;;5.53;;
35961;SDS011;22044;48.298;10.008;2024-02-26T00:30:30;6.03;;;5.30;;
35961;SDS011;22044;48.298;10.008;2024-02-26T00:33:17;9.30;;;5.90;;
35961;SDS011;22044;48.298;10.008;2024-02-26T00:36:03;7.50;;;6.20;;
35961;SDS011;22044;48.298;10.008;2024-02-26T00:38:50;6.77;;;6.07;;
35961;SDS011;22044;48.298;10.008;2024-02-26T00:42:02;7.70;;;5.90;;
35961;SDS011;22044;48.298;10.008;2024-02-26T00:44:47;7.53;;;6.37;;
35961;SDS011;22044;48.298;10.008;2024-02-26T00:47:33;10.07;;;6.87;;
35961;SDS011;22044;48.298;10.008;2024-02-26T00:50:19;7.37;;;6.57;;
35961;SDS011;22044;48.298;10.008;2024-02-26T00:53:05;9.43;;;6.47;;
35961;SDS011;22044;48.298;10.008;2024-02-26T00:55:54;8.70;;;7.20;;
35961;SDS011;22044;48.298;10.008;2024-02-26T00:58:40;11.93;;;8.00;;
35961;SDS011;22044;48.298;10.008;2024-02-26T01:01:25;8.53;;;6.27;;
35961;SDS011;22044;48.298;10.008;2024-02-26T01:04:13;8.33;;;7.07;;
35961;SDS011;22044;48.298;10.008;2024-02-26T01:06:59;8.73;;;7.37;;
35961;SDS011;22044;48.298;10.008;2024-02-26T01:09:44;7.93;;;6.87;;
35961;SDS011;22044;48.298;10.008;2024-02-26T01:12:32;8.80;;;7.07;;
35961;SDS011;22044;48.298;10.008;2024-02-26T01:15:19;9.33;;;7.23;;
35961;SDS011;22044;48.298;10.008;2024-02-26T01:18:07;9.67;;;7.50;;
35961;SDS011;22044;48.298;10.008;2024-02-26T01:20:53;8.23;;;7.10;;
35961;SDS011;22044;48.298;10.008;2024-02-26T01:23:39;8.47;;;7.23;;
35961;SDS011;22044;48.298;10.008;2024-02-26T01:26:26;8.83;;;7.10;;
35961;SDS011;22044;48.298;10.008;2024-02-26T01:29:13;11.20;;;7.67;;
35961;SDS011;22044;48.298;10.008;2024-02-26T01:31:58;10.53;;;6.93;;
35961;SDS011;22044;48.298;10.008;2024-02-26T01:34:44;8.80;;;7.43;;
35961;SDS011;22044;48.298;10.008;2024-02-26T01:37:30;9.93;;;6.97;;
35961;SDS011;22044;48.298;10.008;2024-02-26T01:40:16;8.43;;;6.93;;
35961;SDS011;22044;48.298;10.008;2024-02-26T01:43:03;9.27;;;6.87;;
35961;SDS011;22044;48.298;10.008;2024-02-26T01:45:50;7.93;;;6.93;;
35961;SDS011;22044;48.298;10.008;2024-02-26T01:48:36;8.43;;;6.53;;
35961;SDS011;22044;48.298;10.008;2024-02-26T01:51:22;8.73;;;7.10;;
35961;SDS011;22044;48.298;10.008;2024-02-26T01:54:08;9.37;;;8.13;;
35961;SDS011;22044;48.298;10.008;2024-02-26T01:56:57;9.43;;;7.37;;
35961;SDS011;22044;48.298;10.008;2024-02-26T01:59:42;8.37;;;7.47;;
35961;SDS011;22044;48.298;10.008;2024-02-26T02:02:30;8.80;;;7.73;;
35961;SDS011;22044;48.298;10.008;2024-02-26T02:05:16;9.73;;;8.00;;
35961;SDS011;22044;48.298;10.008;2024-02-26T02:08:02;9.03;;;8.00;;
35961;SDS011;22044;48.298;10.008;2024-02-26T02:10:49;10.17;;;8.70;;
35961;SDS011;22044;48.298;10.008;2024-02-26T02:13:35;9.30;;;8.13;;
35961;SDS011;22044;48.298;10.008;2024-02-26T02:16:23;11.80;;;8.90;;
35961;SDS011;22044;48.298;10.008;2024-02-26T02:19:10;12.20;;;9.00;;
35961;SDS011;22044;48.298;10.008;2024-02-26T02:21:57;11.57;;;9.50;;
35961;SDS011;22044;48.298;10.008;2024-02-26T02:24:44;9.57;;;8.57;;
35961;SDS011;22044;48.298;10.008;2024-02-26T02:27:30;11.00;;;9.13;;
35961;SDS011;22044;48.298;10.008;2024-02-26T02:30:16;13.27;;;9.33;;
35961;SDS011;22044;48.298;10.008;2024-02-26T02:33:02;11.40;;;8.37;;
35961;SDS011;22044;48.298;10.008;2024-02-26T02:35:48;11.13;;;8.97;;
35961;SDS011;22044;48.298;10.008;2024-02-26T02:38:36;12.37;;;9.33;;
35961;SDS011;22044;48.298;10.008;2024-02-26T02:41:21;11.27;;;8.87;;
35961;SDS011;22044;48.298;10.008;2024-02-26T02:44:07;11.40;;;9.57;;
35961;SDS011;22044;48.298;10.008;2024-02-26T02:46:53;13.13;;;9.23;;
35961;SDS011;22044;48.298;10.008;2024-02-26T02:49:39;13.70;;;9.83;;
35961;SDS011;22044;48.298;10.008;2024-02-26T02:52:25;13.50;;;10.10;;
35961;SDS011;22044;48.298;10.008;2024-02-26T02:55:13;14.57;;;10.20;;
35961;SDS011;22044;48.298;10.008;2024-02-26T02:57:59;10.73;;;8.90;;
35961;SDS011;22044;48.298;10.008;2024-02-26T03:00:45;13.13;;;10.20;;
35961;SDS011;22044;48.298;10.008;2024-02-26T03:03:31;10.00;;;8.90;;
35961;SDS011;22044;48.298;10.008;2024-02-26T03:06:18;11.13;;;9.23;;
35961;SDS011;22044;48.298;10.008;2024-02-26T03:09:05;14.47;;;10.20;;
35961;SDS011;22044;48.298;10.008;2024-02-26T03:11:52;11.10;;;8.97;;
35961;SDS011;22044;48.298;10.008;2024-02-26T03:14:37;13.47;;;9.83;;
35961;SDS011;22044;48.298;10.008;2024-02-26T03:17:23;10.83;;;8.57;;
35961;SDS011;22044;48.298;10.008;2024-02-26T03:20:09;10.90;;;8.60;;
35961;SDS011;22044;48.298;10.008;2024-02-26T03:22:55;13.20;;;9.10;;
35961;SDS011;22044;48.298;10.008;2024-02-26T03:25:41;8.77;;;7.23;;
35961;SDS011;22044;48.298;10.008;2024-02-26T03:28:28;9.90;;;8.57;;
35961;SDS011;22044;48.298;10.008;2024-02-26T03:31:14;10.70;;;8.00;;
35961;SDS011;22044;48.298;10.008;2024-02-26T03:34:00;10.87;;;8.73;;
35961;SDS011;22044;48.298;10.008;2024-02-26T03:36:45;12.57;;;8.53;;
35961;SDS011;22044;48.298;10.008;2024-02-26T03:39:31;12.90;;;9.10;;
35961;SDS011;22044;48.298;10.008;2024-02-26T03:42:17;11.63;;;9.43;;
35961;SDS011;22044;48.298;10.008;2024-02-26T03:45:05;11.53;;;9.43;;
35961;SDS011;22044;48.298;10.008;2024-02-26T03:47:53;11.97;;;9.10;;
35961;SDS011;22044;48.298;10.008;2024-02-26T03:50:41;12.53;;;8.90;;
35961;SDS011;22044;48.298;10.008;2024-02-26T03:53:26;11.60;;;9.43;;
35961;SDS011;22044;48.298;10.008;2024-02-26T03:56:12;13.17;;;10.47;;
35961;SDS011;22044;48.298;10.008;2024-02-26T03:58:58;13.50;;;10.30;;
35961;SDS011;22044;48.298;10.008;2024-02-26T04:01:47;15.53;;;10.37;;
35961;SDS011;22044;48.298;10.008;2024-02-26T04:04:33;14.03;;;10.20;;
35961;SDS011;22044;48.298;10.008;2024-02-26T04:07:20;13.63;;;10.27;;
35961;SDS011;22044;48.298;10.008;2024-02-26T04:10:08;15.13;;;10.83;;
35961;SDS011;22044;48.298;10.008;2024-02-26T04:12:54;13.77;;;11.27;;
35961;SDS011;22044;48.298;10.008;2024-02-26T04:15:44;14.40;;;11.07;;
35961;SDS011;22044;48.298;10.008;2024-02-26T04:18:31;13.03;;;10.30;;
35961;SDS011;22044;48.298;10.008;2024-02-26T04:21:17;14.57;;;10.83;;
35961;SDS011;22044;48.298;10.008;2024-02-26T04:24:03;14.40;;;11.03;;
35961;SDS011;22044;48.298;10.008;2024-02-26T04:26:49;15.43;;;11.50;;
35961;SDS011;22044;48.298;10.008;2024-02-26T04:29:35;14.90;;;10.87;;
35961;SDS011;22044;48.298;10.008;2024-02-26T04:32:20;13.80;;;10.17;;
35961;SDS011;22044;48.298;10.008;2024-02-26T04:35:08;14.07;;;10.63;;
35961;SDS011;22044;48.298;10.008;2024-02-26T04:37:54;14.77;;;10.93;;
35961;SDS011;22044;48.298;10.008;2024-02-26T04:40:41;17.57;;;11.90;;
35961;SDS011;22044;48.298;10.008;2024-02-26T04:43:27;13.90;;;11.07;;
35961;SDS011;22044;48.298;10.008;2024-02-26T04:46:12;16.33;;;12.20;;
35961;SDS011;22044;48.298;10.008;2024-02-26T04:48:58;17.30;;;12.50;;
35961;SDS011;22044;48.298;10.008;2024-02-26T04:52:11;14.03;;;10.10;;
35961;SDS011;22044;48.298;10.008;2024-02-26T04:55:01;15.07;;;10.67;;
35961;SDS011;22044;48.298;10.008;2024-02-26T04:57:47;13.27;;;11.10;;
35961;SDS011;22044;48.298;10.008;2024-02-26T05:00:33;14.60;;;10.27;;
35961;SDS011;22044;48.298;10.008;2024-02-26T05:03:18;13.83;;;10.80;;
35961;SDS011;22044;48.298;10.008;2024-02-26T05:06:04;16.00;;;11.93;;
35961;SDS011;22044;48.298;10.008;2024-02-26T05:08:54;15.90;;;11.93;;
35961;SDS011;22044;48.298;10.008;2024-02-26T05:11:39;14.80;;;10.93;;
35961;SDS011;22044;48.298;10.008;2024-02-26T05:14:25;17.03;;;12.83;;
35961;SDS011;22044;48.298;10.008;2024-02-26T05:17:11;16.17;;;11.37;;
35961;SDS011;22044;48.298;10.008;2024-02-26T05:19:57;13.97;;;10.73;;
35961;SDS011;22044;48.298;10.008;2024-02-26T05:22:43;16.17;;;12.23;;
35961;SDS011;22044;48.298;10.008;2024-02-26T05:25:30;17.10;;;12.13;;
35961;SDS011;22044;48.298;10.008;2024-02-26T05:28:19;17.10;;;13.23;;
35961;SDS011;22044;48.298;10.008;2024-02-26T05:31:05;18.07;;;12.73;;
35961;SDS011;22044;48.298;10.008;2024-02-26T05:33:51;16.70;;;12.57;;
35961;SDS011;22044;48.298;10.008;2024-02-26T05:36:37;17.48;;;12.50;;
35961;SDS011;22044;48.298;10.008;2024-02-26T05:39:23;17.50;;;12.30;;
35961;SDS011;22044;48.298;10.008;2024-02-26T05:42:12;17.47;;;13.10;;
35961;SDS011;22044;48.298;10.008;2024-02-26T05:44:58;19.33;;;13.80;;
35961;SDS011;22044;48.298;10.008;2024-02-26T05:47:48;16.53;;;11.43;;
35961;SDS011;22044;48.298;10.008;2024-02-26T05:50:34;17.17;;;11.90;;
35961;SDS011;22044;48.298;10.008;2024-02-26T05:53:20;20.57;;;13.83;;
35961;SDS011;22044;48.298;10.008;2024-02-26T05:56:06;16.17;;;12.73;;
35961;SDS011;22044;48.298;10.008;2024-02-26T05:58:53;17.73;;;12.43;;
35961;SDS011;22044;48.298;10.008;2024-02-26T06:01:39;21.07;;;13.67;;
35961;SDS011;22044;48.298;10.008;2024-02-26T06:04:25;22.60;;;14.87;;
35961;SDS011;22044;48.298;10.008;2024-02-26T06:07:14;20.90;;;14.40;;
35961;SDS011;22044;48.298;10.008;2024-02-26T06:09:59;21.43;;;13.90;;
35961;SDS011;22044;48.298;10.008;2024-02-26T06:12:46;18.57;;;12.23;;
35961;SDS011;22044;48.298;10.008;2024-02-26T06:15:33;18.43;;;13.27;;
35961;SDS011;22044;48.298;10.008;2024-02-26T06:18:18;17.23;;;12.57;;
35961;SDS011;22044;48.298;10.008;2024-02-26T06:21:08;19.00;;;13.07;;
35961;SDS011;22044;48.298;10.008;2024-02-26T06:23:54;16.90;;;12.77;;
35961;SDS011;22044;48.298;10.008;2024-02-26T06:26:40;20.47;;;13.20;;
35961;SDS011;22044;48.298;10.008;2024-02-26T06:29:26;16.40;;;12.47;;
35961;SDS011;22044;48.298;10.008;2024-02-26T06:32:13;18.03;;;12.70;;
35961;SDS011;22044;48.298;10.008;2024-02-26T06:34:59;19.40;;;13.77;;
35961;SDS011;22044;48.298;10.008;2024-02-26T06:37:50;18.47;;;13.37;;
35961;SDS011;22044;48.298;10.008;2024-02-26T06:40:38;24.97;;;14.53;;
35961;SDS011;22044;48.298;10.008;2024-02-26T06:43:24;17.63;;;12.83;;
35961;SDS011;22044;48.298;10.008;2024-02-26T06:46:10;18.97;;;13.07;;
35961;SDS011;22044;48.298;10.008;2024-02-26T06:48:57;20.63;;;14.37;;
35961;SDS011;22044;48.298;10.008;2024-02-26T06:51:43;19.33;;;13.67;;
35961;SDS011;22044;48.298;10.008;2024-02-26T06:54:29;20.87;;;13.97;;
35961;SDS011;22044;48.298;10.008;2024-02-26T06:57:15;24.17;;;15.23;;
35961;SDS011;22044;48.298;10.008;2024-02-26T07:00:00;23.40;;;15.17;;
35961;SDS011;22044;48.298;10.008;2024-02-26T07:02:48;21.93;;;14.23;;
35961;SDS011;22044;48.298;10.008;2024-02-26T07:05:36;20.03;;;13.37;;
35961;SDS011;22044;48.298;10.008;2024-02-26T07:08:22;19.37;;;13.07;;
35961;SDS011;22044;48.298;10.008;2024-02-26T07:11:08;20.53;;;14.10;;
35961;SDS011;22044;48.298;10.008;2024-02-26T07:13:54;18.20;;;13.37;;
35961;SDS011;22044;48.298;10.008;2024-02-26T07:16:40;19.27;;;14.93;;
35961;SDS011;22044;48.298;10.008;2024-02-26T07:19:26;18.83;;;14.33;;
35961;SDS011;22044;48.298;10.008;2024-02-26T07:22:13;19.80;;;13.57;;
35961;SDS011;22044;48.298;10.008;2024-02-26T07:24:59;20.90;;;13.63;;
35961;SDS011;22044;48.298;10.008;2024-02-26T07:27:46;21.37;;;14.17;;
35961;SDS011;22044;48.298;10.008;2024-02-26T07:30:32;20.10;;;14.20;;
35961;SDS011;22044;48.298;10.008;2024-02-26T07:33:18;20.57;;;15.13;;
35961;SDS011;22044;48.298;10.008;2024-02-26T07:36:04;19.87;;;14.67;;
35961;SDS011;22044;48.298;10.008;2024-02-26T07:38:52;17.37;;;12.90;;
35961;SDS011;22044;48.298;10.008;2024-02-26T07:41:38;19.93;;;14.70;;
35961;SDS011;22044;48.298;10.008;2024-02-26T07:44:24;20.47;;;14.77;;
35961;SDS011;22044;48.298;10.008;2024-02-26T07:47:10;20.30;;;15.33;;
35961;SDS011;22044;48.298;10.008;2024-02-26T07:50:02;20.23;;;14.77;;
35961;SDS011;22044;48.298;10.008;2024-02-26T07:52:48;20.10;;;14.53;;
35961;SDS011;22044;48.298;10.008;2024-02-26T07:55:40;21.50;;;15.50;;
35961;SDS011;22044;48.298;10.008;2024-02-26T07:58:26;21.93;;;15.97;;
35961;SDS011;22044;48.298;10.008;2024-02-26T08:01:13;20.10;;;14.63;;
35961;SDS011;22044;48.298;10.008;2024-02-26T08:03:59;22.17;;;14.90;;
35961;SDS011;22044;48.298;10.008;2024-02-26T08:06:46;22.37;;;14.83;;
35961;SDS011;22044;48.298;10.008;2024-02-26T08:09:31;22.80;;;15.17;;
35961;SDS011;22044;48.298;10.008;2024-02-26T08:12:19;23.07;;;17.07;;
35961;SDS011;22044;48.298;10.008;2024-02-26T08:15:05;21.17;;;15.37;;
35961;SDS011;22044;48.298;10.008;2024-02-26T08:17:52;23.40;;;16.77;;
35961;SDS011;22044;48.298;10.008;2024-02-26T08:20:38;21.67;;;15.37;;
35961;SDS011;22044;48.298;10.008;2024-02-26T08:23:24;22.23;;;15.57;;
35961;SDS011;22044;48.298;10.008;2024-02-26T08:26:10;22.60;;;15.93;;
35961;SDS011;22044;48.298;10.008;2024-02-26T08:28:57;25.73;;;15.97;;
35961;SDS011;22044;48.298;10.008;2024-02-26T08:31:44;24.83;;;16.80;;
35961;SDS011;22044;48.298;10.008;2024-02-26T08:34:29;22.77;;;15.93;;
35961;SDS011;22044;48.298;10.008;2024-02-26T08:37:16;23.00;;;16.00;;
35961;SDS011;22044;48.298;10.008;2024-02-26T08:40:02;21.87;;;15.17;;
35961;SDS011;22044;48.298;10.008;2024-02-26T08:42:48;19.73;;;14.73;;
35961;SDS011;22044;48.298;10.008;2024-02-26T08:45:35;23.63;;;15.10;;
35961;SDS011;22044;48.298;10.008;2024-02-26T08:48:21;19.30;;;13.90;;
35961;SDS011;22044;48.298;10.008;2024-02-26T08:51:07;17.93;;;13.37;;
35961;SDS011;22044;48.298;10.008;2024-02-26T08:53:53;21.10;;;14.07;;
35961;SDS011;22044;48.298;10.008;2024-02-26T08:56:39;18.33;;;14.83;;
35961;SDS011;22044;48.298;10.008;2024-02-26T08:59:24;20.47;;;14.47;;
35961;SDS011;22044;48.298;10.008;2024-02-26T09:02:11;23.00;;;15.37;;
35961;SDS011;22044;48.298;10.008;2024-02-26T09:04:57;24.70;;;16.13;;
35961;SDS011;22044;48.298;10.008;2024-02-26T09:07:43;21.80;;;16.17;;
35961;SDS011;22044;48.298;10.008;2024-02-26T09:10:29;19.53;;;14.30;;
35961;SDS011;22044;48.298;10.008;2024-02-26T09:13:15;24.03;;;16.43;;
35961;SDS011;22044;48.298;10.008;2024-02-26T09:16:05;22.33;;;15.57;;
35961;SDS011;22044;48.298;10.008;2024-02-26T09:18:53;24.10;;;14.73;;
35961;SDS011;22044;48.298;10.008;2024-02-26T09:21:41;23.83;;;16.07;;
35961;SDS011;22044;48.298;10.008;2024-02-26T09:24:28;25.10;;;19.47;;
35961;SDS011;22044;48.298;10.008;2024-02-26T09:27:13;30.93;;;23.27;;
35961;SDS011;22044;48.298;10.008;2024-02-26T09:29:59;36.67;;;24.33;;
35961;SDS011;22044;48.298;10.008;2024-02-26T09:32:45;29.87;;;21.27;;
35961;SDS011;22044;48.298;10.008;2024-02-26T09:35:33;28.77;;;20.33;;
35961;SDS011;22044;48.298;10.008;2024-02-26T09:38:19;25.23;;;18.67;;
35961;SDS011;22044;48.298;10.008;2024-02-26T09:41:05;28.17;;;20.47;;
35961;SDS011;22044;48.298;10.008;2024-02-26T09:43:52;30.30;;;22.83;;
35961;SDS011;22044;48.298;10.008;2024-02-26T09:46:43;30.37;;;23.30;;
35961;SDS011;22044;48.298;10.008;2024-02-26T09:49:29;28.97;;;21.43;;
35961;SDS011;22044;48.298;10.008;2024-02-26T09:52:16;23.50;;;17.93;;
35961;SDS011;22044;48.298;10.008;2024-02-26T09:55:04;20.67;;;16.33;;
35961;SDS011;22044;48.298;10.008;2024-02-26T09:57:52;19.93;;;13.73;;
35961;SDS011;22044;48.298;10.008;2024-02-26T10:00:39;16.00;;;13.10;;
35961;SDS011;22044;48.298;10.008;2024-02-26T10:03:28;18.13;;;11.77;;
35961;SDS011;22044;48.298;10.008;2024-02-26T10:06:19;19.20;;;12.13;;
35961;SDS011;22044;48.298;10.008;2024-02-26T10:09:07;16.53;;;12.17;;
35961;SDS011;22044;48.298;10.008;2024-02-26T10:11:55;13.47;;;10.40;;
35961;SDS011;22044;48.298;10.008;2024-02-26T10:14:43;13.60;;;10.63;;
35961;SDS011;22044;48.298;10.008;2024-02-26T10:17:29;17.47;;;10.53;;
35961;SDS011;22044;48.298;10.008;2024-02-26T10:20:15;14.13;;;10.53;;
35961;SDS011;22044;48.298;10.008;2024-02-26T10:23:02;13.07;;;9.67;;
35961;SDS011;22044;48.298;10.008;2024-02-26T10:25:53;15.90;;;10.07;;
35961;SDS011;22044;48.298;10.008;2024-02-26T10:28:39;13.27;;;9.70;;
35961;SDS011;22044;48.298;10.008;2024-02-26T10:31:26;13.83;;;9.37;;
35961;SDS011;22044;48.298;10.008;2024-02-26T10:34:12;12.13;;;9.43;;
35961;SDS011;22044;48.298;10.008;2024-02-26T10:37:00;12.33;;;9.67;;
35961;SDS011;22044;48.298;10.008;2024-02-26T10:39:47;13.70;;;9.87;;
35961;SDS011;22044;48.298;10.008;2024-02-26T10:42:37;10.90;;;9.03;;
35961;SDS011;22044;48.298;10.008;2024-02-26T10:45:23;12.77;;;9.83;;
35961;SDS011;22044;48.298;10.008;2024-02-26T10:48:10;11.63;;;9.47;;
35961;SDS011;22044;48.298;10.008;2024-02-26T10:51:25;11.97;;;8.90;;
35961;SDS011;22044;48.298;10.008;2024-02-26T10:54:12;12.00;;;9.20;;
35961;SDS011;22044;48.298;10.008;2024-02-26T10:57:01;12.13;;;9.40;;
35961;SDS011;22044;48.298;10.008;2024-02-26T10:59:50;10.83;;;8.93;;
35961;SDS011;22044;48.298;10.008;2024-02-26T11:02:38;11.90;;;9.70;;
35961;SDS011;22044;48.298;10.008;2024-02-26T11:05:25;12.60;;;9.20;;
35961;SDS011;22044;48.298;10.008;2024-02-26T11:08:12;12.00;;;10.23;;
35961;SDS011;22044;48.298;10.008;2024-02-26T11:10:58;14.37;;;9.60;;
35961;SDS011;22044;48.298;10.008;2024-02-26T11:13:45;11.13;;;9.43;;
35961;SDS011;22044;48.298;10.008;2024-02-26T11:16:36;11.53;;;9.00;;
35961;SDS011;22044;48.298;10.008;2024-02-26T11:19:24;9.73;;;8.40;;
35961;SDS011;22044;48.298;10.008;2024-02-26T11:22:11;11.03;;;9.53;;
35961;SDS011;22044;48.298;10.008;2024-02-26T11:24:57;11.50;;;9.47;;
35961;SDS011;22044;48.298;10.008;2024-02-26T11:27:45;13.73;;;9.27;;
35961;SDS011;22044;48.298;10.008;2024-02-26T11:30:36;12.43;;;10.07;;
35961;SDS011;22044;48.298;10.008;2024-02-26T11:33:27;10.70;;;9.13;;
35961;SDS011;22044;48.298;10.008;2024-02-26T11:36:13;12.27;;;9.23;;
35961;SDS011;22044;48.298;10.008;2024-02-26T11:38:59;10.50;;;8.73;;
35961;SDS011;22044;48.298;10.008;2024-02-26T11:41:45;11.30;;;8.90;;
35961;SDS011;22044;48.298;10.008;2024-02-26T11:44:31;11.97;;;9.27;;
35961;SDS011;22044;48.298;10.008;2024-02-26T11:47:18;11.90;;;9.60;;
35961;SDS011;22044;48.298;10.008;2024-02-26T11:53:24;13.60;;;9.97;;
35961;SDS011;22044;48.298;10.008;2024-02-26T11:56:12;10.80;;;8.83;;
35961;SDS011;22044;48.298;10.008;2024-02-26T11:59:04;10.93;;;8.83;;
35961;SDS011;22044;48.298;10.008;2024-02-26T12:01:53;11.10;;;8.13;;
35961;SDS011;22044;48.298;10.008;2024-02-26T12:04:41;11.07;;;9.37;;
35961;SDS011;22044;48.298;10.008;2024-02-26T12:07:28;10.77;;;8.30;;
35961;SDS011;22044;48.298;10.008;2024-02-26T12:10:22;11.23;;;8.53;;
35961;SDS011;22044;48.298;10.008;2024-02-26T12:13:10;10.30;;;8.83;;
35961;SDS011;22044;48.298;10.008;2024-02-26T12:15:57;11.93;;;8.97;;
35961;SDS011;22044;48.298;10.008;2024-02-26T12:18:44;9.87;;;8.77;;
35961;SDS011;22044;48.298;10.008;2024-02-26T12:21:30;9.60;;;8.20;;
35961;SDS011;22044;48.298;10.008;2024-02-26T12:24:18;11.57;;;9.67;;
35961;SDS011;22044;48.298;10.008;2024-02-26T12:27:05;11.57;;;9.17;;
35961;SDS011;22044;48.298;10.008;2024-02-26T12:29:50;12.07;;;9.10;;
35961;SDS011;22044;48.298;10.008;2024-02-26T12:32:37;15.23;;;9.90;;
35961;SDS011;22044;48.298;10.008;2024-02-26T12:35:25;14.77;;;8.87;;
35961;SDS011;22044;48.298;10.008;2024-02-26T12:38:11;11.23;;;8.77;;
35961;SDS011;22044;48.298;10.008;2024-02-26T12:40:59;13.37;;;8.87;;
35961;SDS011;22044;48.298;10.008;2024-02-26T12:43:45;10.53;;;9.20;;
35961;SDS011;22044;48.298;10.008;2024-02-26T12:46:31;11.67;;;8.80;;
35961;SDS011;22044;48.298;10.008;2024-02-26T12:49:17;14.03;;;9.97;;
35961;SDS011;22044;48.298;10.008;2024-02-26T12:52:03;12.37;;;9.47;;
35961;SDS011;22044;48.298;10.008;2024-02-26T12:54:50;11.17;;;8.60;;
35961;SDS011;22044;48.298;10.008;2024-02-26T12:57:38;11.80;;;8.87;;
35961;SDS011;22044;48.298;10.008;2024-02-26T13:00:25;11.53;;;8.83;;
35961;SDS011;22044;48.298;10.008;2024-02-26T13:03:12;11.27;;;9.33;;
35961;SDS011;22044;48.298;10.008;2024-02-26T13:05:58;11.57;;;9.23;;
35961;SDS011;22044;48.298;10.008;2024-02-26T13:08:45;12.57;;;9.63;;
35961;SDS011;22044;48.298;10.008;2024-02-26T13:11:31;11.90;;;9.50;;
35961;SDS011;22044;48.298;10.008;2024-02-26T13:14:20;14.37;;;9.57;;
35961;SDS011;22044;48.298;10.008;2024-02-26T13:17:06;13.37;;;9.87;;
35961;SDS011;22044;48.298;10.008;2024-02-26T13:19:52;11.17;;;9.13;;
35961;SDS011;22044;48.298;10.008;2024-02-26T13:22:38;12.67;;;9.97;;
35961;SDS011;22044;48.298;10.008;2024-02-26T13:25:24;12.13;;;8.63;;
35961;SDS011;22044;48.298;10.008;2024-02-26T13:28:12;10.93;;;9.23;;
35961;SDS011;22044;48.298;10.008;2024-02-26T13:31:02;10.87;;;8.53;;
35961;SDS011;22044;48.298;10.008;2024-02-26T13:33:50;10.33;;;9.03;;
35961;SDS011;22044;48.298;10.008;2024-02-26T13:36:39;11.50;;;9.30;;
35961;SDS011;22044;48.298;10.008;2024-02-26T13:39:25;9.70;;;8.30;;
35961;SDS011;22044;48.298;10.008;2024-02-26T13:42:12;12.43;;;9.27;;
35961;SDS011;22044;48.298;10.008;2024-02-26T13:44:59;11.03;;;8.63;;
35961;SDS011;22044;48.298;10.008;2024-02-26T13:47:46;11.50;;;9.13;;
35961;SDS011;22044;48.298;10.008;2024-02-26T13:50:32;13.93;;;9.57;;
35961;SDS011;22044;48.298;10.008;2024-02-26T13:53:19;13.90;;;9.20;;
35961;SDS011;22044;48.298;10.008;2024-02-26T13:56:07;12.87;;;8.60;;
35961;SDS011;22044;48.298;10.008;2024-02-26T13:58:54;14.30;;;9.37;;
35961;SDS011;22044;48.298;10.008;2024-02-26T14:01:40;13.13;;;8.70;;
35961;SDS011;22044;48.298;10.008;2024-02-26T14:04:28;10.40;;;8.63;;
35961;SDS011;22044;48.298;10.008;2024-02-26T14:07:13;10.87;;;7.97;;
35961;SDS011;22044;48.298;10.008;2024-02-26T14:10:03;9.97;;;7.83;;
35961;SDS011;22044;48.298;10.008;2024-02-26T14:13:14;12.03;;;8.90;;
35961;SDS011;22044;48.298;10.008;2024-02-26T14:16:00;10.43;;;8.63;;
35961;SDS011;22044;48.298;10.008;2024-02-26T14:18:45;12.80;;;8.60;;
35961;SDS011;22044;48.298;10.008;2024-02-26T14:21:34;10.00;;;7.67;;
35961;SDS011;22044;48.298;10.008;2024-02-26T14:24:47;11.27;;;8.40;;
35961;SDS011;22044;48.298;10.008;2024-02-26T14:27:34;10.37;;;7.80;;
35961;SDS011;22044;48.298;10.008;2024-02-26T14:30:19;9.80;;;7.83;;
35961;SDS011;22044;48.298;10.008;2024-02-26T14:33:08;8.30;;;7.13;;
35961;SDS011;22044;48.298;10.008;2024-02-26T14:36:04;9.17;;;7.50;;
35961;SDS011;22044;48.298;10.008;2024-02-26T14:38:52;8.73;;;6.80;;
35961;SDS011;22044;48.298;10.008;2024-02-26T14:41:38;8.90;;;7.40;;
35961;SDS011;22044;48.298;10.008;2024-02-26T14:44:24;8.93;;;7.20;;
35961;SDS011;22044;48.298;10.008;2024-02-26T14:47:11;10.83;;;7.50;;
35961;SDS011;22044;48.298;10.008;2024-02-26T14:49:56;8.00;;;6.90;;
35961;SDS011;22044;48.298;10.008;2024-02-26T14:52:42;9.67;;;6.90;;
35961;SDS011;22044;48.298;10.008;2024-02-26T14:55:29;11.33;;;7.17;;
35961;SDS011;22044;48.298;10.008;2024-02-26T14:58:16;9.27;;;6.67;;
35961;SDS011;22044;48.298;10.008;2024-02-26T15:01:02;11.27;;;7.53;;
35961;SDS011;22044;48.298;10.008;2024-02-26T15:03:48;9.97;;;7.70;;
35961;SDS011;22044;48.298;10.008;2024-02-26T15:06:34;9.10;;;7.23;;
35961;SDS011;22044;48.298;10.008;2024-02-26T15:09:23;12.13;;;8.27;;
35961;SDS011;22044;48.298;10.008;2024-02-26T15:12:10;7.60;;;6.73;;
35961;SDS011;22044;48.298;10.008;2024-02-26T15:14:58;11.67;;;7.83;;
35961;SDS011;22044;48.298;10.008;2024-02-26T15:17:44;12.00;;;7.40;;
35961;SDS011;22044;48.298;10.008;2024-02-26T15:20:30;8.13;;;6.97;;
35961;SDS011;22044;48.298;10.008;2024-02-26T15:23:15;9.40;;;7.60;;
35961;SDS011;22044;48.298;10.008;2024-02-26T15:26:02;10.67;;;7.87;;
35961;SDS011;22044;48.298;10.008;2024-02-26T15:28:49;12.03;;;8.40;;
35961;SDS011;22044;48.298;10.008;2024-02-26T15:31:35;12.57;;;8.37;;
35961;SDS011;22044;48.298;10.008;2024-02-26T15:34:21;11.40;;;7.50;;
35961;SDS011;22044;48.298;10.008;2024-02-26T15:37:07;9.23;;;7.53;;
35961;SDS011;22044;48.298;10.008;2024-02-26T15:39:54;10.43;;;7.90;;
35961;SDS011;22044;48.298;10.008;2024-02-26T15:42:39;10.27;;;7.93;;
35961;SDS011;22044;48.298;10.008;2024-02-26T15:45:27;10.10;;;8.20;;
35961;SDS011;22044;48.298;10.008;2024-02-26T15:48:16;11.03;;;8.80;;
35961;SDS011;22044;48.298;10.008;2024-02-26T15:51:02;14.13;;;8.53;;
35961;SDS011;22044;48.298;10.008;2024-02-26T15:53:48;12.43;;;8.40;;
35961;SDS011;22044;48.298;10.008;2024-02-26T15:56:34;11.10;;;7.67;;
35961;SDS011;22044;48.298;10.008;2024-02-26T15:59:21;10.33;;;8.10;;
35961;SDS011;22044;48.298;10.008;2024-02-26T16:02:33;12.73;;;7.80;;
35961;SDS011;22044;48.298;10.008;2024-02-26T16:05:19;11.03;;;8.10;;
35961;SDS011;22044;48.298;10.008;2024-02-26T16:08:05;12.20;;;8.00;;
35961;SDS011;22044;48.298;10.008;2024-02-26T16:10:55;11.93;;;8.77;;
35961;SDS011;22044;48.298;10.008;2024-02-26T16:13:41;9.97;;;7.87;;
35961;SDS011;22044;48.298;10.008;2024-02-26T16:16:28;11.83;;;8.03;;